sensor_id;sensor_type;location;lat;lon;timestamp;P1;durP1;ratioP1;P2;durP2;ratioP2
6947;SDS011;3513;47.664;9.162;2023-04-25T00:02:25;6.07;;;3.60;;
6947;SDS011;3513;47.664;9.162;2023-04-25T00:04:50;4.90;;;3.77;;
6947;SDS011;3513;47.664;9.162;2023-04-25T00:07:16;9.67;;;3.83;;
6947;SDS011;3513;47.664;9.162;2023-04-25T00:09:42;3.90;;;3.13;;
6947;SDS011;3513;47.664;9.162;2023-04-25T00:12:08;24.07;;;4.23;;
6947;SDS011;3513;47.664;9.162;2023-04-25T00:14:34;4.90;;;3.90;;
6947;SDS011;3513;47.664;9.162;2023-04-25T00:17:00;6.80;;;4.47;;
6947;SDS011;3513;47.664;9.162;2023-04-25T00:19:26;13.43;;;4.50;;
6947;SDS011;3513;47.664;9.162;2023-04-25T00:21:53;7.83;;;3.50;;
6947;SDS011;3513;47.664;9.162;2023-04-25T00:24:22;5.60;;;3.83;;
6947;SDS011;3513;47.664;9.162;2023-04-25T00:26:48;16.10;;;3.83;;
6947;SDS011;3513;47.664;9.162;2023-04-25T00:29:13;6.73;;;3.93;;
6947;SDS011;3513;47.664;9.162;2023-04-25T00:31:39;7.37;;;3.60;;
6947;SDS011;3513;47.664;9.162;2023-04-25T00:34:05;7.73;;;4.37;;
6947;SDS011;3513;47.664;9.162;2023-04-25T00:36:32;9.23;;;4.07;;
6947;SDS011;3513;47.664;9.162;2023-04-25T00:38:57;7.37;;;3.77;;
6947;SDS011;3513;47.664;9.162;2023-04-25T00:41:23;8.83;;;4.10;;
6947;SDS011;3513;47.664;9.162;2023-04-25T00:43:51;12.47;;;3.60;;
6947;SDS011;3513;47.664;9.162;2023-04-25T00:46:18;5.50;;;3.53;;
6947;SDS011;3513;47.664;9.162;2023-04-25T00:48:44;8.43;;;4.10;;
6947;SDS011;3513;47.664;9.162;2023-04-25T00:51:10;11.30;;;4.53;;
6947;SDS011;3513;47.664;9.162;2023-04-25T00:53:40;9.60;;;3.70;;
6947;SDS011;3513;47.664;9.162;2023-04-25T00:56:06;6.63;;;2.80;;
6947;SDS011;3513;47.664;9.162;2023-04-25T00:58:32;5.00;;;3.20;;
6947;SDS011;3513;47.664;9.162;2023-04-25T01:00:58;5.10;;;3.50;;
6947;SDS011;3513;47.664;9.162;2023-04-25T01:03:25;9.47;;;3.23;;
6947;SDS011;3513;47.664;9.162;2023-04-25T01:05:53;12.27;;;4.10;;
6947;SDS011;3513;47.664;9.162;2023-04-25T01:08:19;17.27;;;3.60;;
6947;SDS011;3513;47.664;9.162;2023-04-25T01:10:48;5.27;;;3.20;;
6947;SDS011;3513;47.664;9.162;2023-04-25T01:13:13;10.03;;;3.90;;
6947;SDS011;3513;47.664;9.162;2023-04-25T01:15:39;7.80;;;3.70;;
6947;SDS011;3513;47.664;9.162;2023-04-25T01:18:05;9.80;;;3.60;;
6947;SDS011;3513;47.664;9.162;2023-04-25T01:20:31;13.90;;;3.13;;
6947;SDS011;3513;47.664;9.162;2023-04-25T01:22:57;5.07;;;3.00;;
6947;SDS011;3513;47.664;9.162;2023-04-25T01:25:23;3.90;;;3.03;;
6947;SDS011;3513;47.664;9.162;2023-04-25T01:27:49;10.07;;;2.70;;
6947;SDS011;3513;47.664;9.162;2023-04-25T01:30:15;3.00;;;2.40;;
6947;SDS011;3513;47.664;9.162;2023-04-25T01:32:41;5.00;;;2.57;;
6947;SDS011;3513;47.664;9.162;2023-04-25T01:35:08;8.20;;;2.87;;
6947;SDS011;3513;47.664;9.162;2023-04-25T01:37:41;5.93;;;2.97;;
6947;SDS011;3513;47.664;9.162;2023-04-25T01:40:11;4.33;;;2.43;;
6947;SDS011;3513;47.664;9.162;2023-04-25T01:42:38;7.37;;;2.90;;
6947;SDS011;3513;47.664;9.162;2023-04-25T01:45:06;10.83;;;3.57;;
6947;SDS011;3513;47.664;9.162;2023-04-25T01:47:32;5.10;;;3.20;;
6947;SDS011;3513;47.664;9.162;2023-04-25T01:50:00;5.20;;;3.10;;
6947;SDS011;3513;47.664;9.162;2023-04-25T01:52:26;5.40;;;2.93;;
6947;SDS011;3513;47.664;9.162;2023-04-25T01:54:52;6.13;;;3.27;;
6947;SDS011;3513;47.664;9.162;2023-04-25T01:57:18;14.87;;;3.47;;
6947;SDS011;3513;47.664;9.162;2023-04-25T01:59:44;5.33;;;3.27;;
6947;SDS011;3513;47.664;9.162;2023-04-25T02:02:10;3.07;;;2.77;;
6947;SDS011;3513;47.664;9.162;2023-04-25T02:04:36;9.70;;;2.97;;
6947;SDS011;3513;47.664;9.162;2023-04-25T02:07:02;2.83;;;2.63;;
6947;SDS011;3513;47.664;9.162;2023-04-25T02:09:28;4.83;;;3.07;;
6947;SDS011;3513;47.664;9.162;2023-04-25T02:11:54;6.50;;;3.20;;
6947;SDS011;3513;47.664;9.162;2023-04-25T02:14:19;6.27;;;3.50;;
6947;SDS011;3513;47.664;9.162;2023-04-25T02:16:45;4.00;;;3.70;;
6947;SDS011;3513;47.664;9.162;2023-04-25T02:19:11;8.60;;;4.37;;
6947;SDS011;3513;47.664;9.162;2023-04-25T02:21:37;6.83;;;4.00;;
6947;SDS011;3513;47.664;9.162;2023-04-25T02:24:03;11.20;;;3.70;;
6947;SDS011;3513;47.664;9.162;2023-04-25T02:26:29;9.30;;;4.83;;
6947;SDS011;3513;47.664;9.162;2023-04-25T02:28:56;10.80;;;4.10;;
6947;SDS011;3513;47.664;9.162;2023-04-25T02:31:22;9.13;;;4.10;;
6947;SDS011;3513;47.664;9.162;2023-04-25T02:33:47;5.63;;;3.23;;
6947;SDS011;3513;47.664;9.162;2023-04-25T02:36:13;8.93;;;4.20;;
6947;SDS011;3513;47.664;9.162;2023-04-25T02:38:39;5.83;;;3.77;;
6947;SDS011;3513;47.664;9.162;2023-04-25T02:41:04;13.77;;;4.37;;
6947;SDS011;3513;47.664;9.162;2023-04-25T02:43:30;7.50;;;4.17;;
6947;SDS011;3513;47.664;9.162;2023-04-25T02:45:56;9.57;;;5.03;;
6947;SDS011;3513;47.664;9.162;2023-04-25T02:48:21;19.80;;;4.93;;
6947;SDS011;3513;47.664;9.162;2023-04-25T02:50:47;12.13;;;4.37;;
6947;SDS011;3513;47.664;9.162;2023-04-25T02:53:12;8.77;;;4.50;;
6947;SDS011;3513;47.664;9.162;2023-04-25T02:55:38;9.00;;;5.30;;
6947;SDS011;3513;47.664;9.162;2023-04-25T02:58:04;12.40;;;4.30;;
6947;SDS011;3513;47.664;9.162;2023-04-25T03:00:30;16.17;;;4.50;;
6947;SDS011;3513;47.664;9.162;2023-04-25T03:02:55;13.70;;;3.97;;
6947;SDS011;3513;47.664;9.162;2023-04-25T03:05:21;8.20;;;5.00;;
6947;SDS011;3513;47.664;9.162;2023-04-25T03:07:47;13.10;;;5.47;;
6947;SDS011;3513;47.664;9.162;2023-04-25T03:10:12;8.07;;;4.73;;
6947;SDS011;3513;47.664;9.162;2023-04-25T03:12:38;12.13;;;4.57;;
6947;SDS011;3513;47.664;9.162;2023-04-25T03:15:04;7.47;;;4.50;;
6947;SDS011;3513;47.664;9.162;2023-04-25T03:17:30;15.03;;;4.87;;
6947;SDS011;3513;47.664;9.162;2023-04-25T03:19:56;8.23;;;4.87;;
6947;SDS011;3513;47.664;9.162;2023-04-25T03:22:22;20.63;;;5.20;;
6947;SDS011;3513;47.664;9.162;2023-04-25T03:24:49;18.97;;;5.80;;
6947;SDS011;3513;47.664;9.162;2023-04-25T03:27:15;20.20;;;5.47;;
6947;SDS011;3513;47.664;9.162;2023-04-25T03:29:41;13.27;;;5.37;;
6947;SDS011;3513;47.664;9.162;2023-04-25T03:32:06;14.70;;;5.17;;
6947;SDS011;3513;47.664;9.162;2023-04-25T03:34:32;9.60;;;5.13;;
6947;SDS011;3513;47.664;9.162;2023-04-25T03:36:57;15.73;;;4.53;;
6947;SDS011;3513;47.664;9.162;2023-04-25T03:39:23;9.73;;;4.83;;
6947;SDS011;3513;47.664;9.162;2023-04-25T03:41:48;16.67;;;4.53;;
6947;SDS011;3513;47.664;9.162;2023-04-25T03:44:14;13.53;;;5.00;;
6947;SDS011;3513;47.664;9.162;2023-04-25T03:46:40;10.90;;;4.73;;
6947;SDS011;3513;47.664;9.162;2023-04-25T03:49:05;25.30;;;5.80;;
6947;SDS011;3513;47.664;9.162;2023-04-25T03:51:31;7.63;;;3.90;;
6947;SDS011;3513;47.664;9.162;2023-04-25T03:53:57;9.23;;;4.10;;
6947;SDS011;3513;47.664;9.162;2023-04-25T03:56:23;8.83;;;4.83;;
6947;SDS011;3513;47.664;9.162;2023-04-25T03:58:48;17.00;;;5.00;;
6947;SDS011;3513;47.664;9.162;2023-04-25T04:01:14;7.03;;;3.83;;
6947;SDS011;3513;47.664;9.162;2023-04-25T04:03:40;14.83;;;4.43;;
6947;SDS011;3513;47.664;9.162;2023-04-25T04:06:05;10.33;;;4.27;;
6947;SDS011;3513;47.664;9.162;2023-04-25T04:08:32;7.90;;;4.40;;
6947;SDS011;3513;47.664;9.162;2023-04-25T04:10:58;8.20;;;4.40;;
6947;SDS011;3513;47.664;9.162;2023-04-25T04:13:28;8.50;;;3.43;;
6947;SDS011;3513;47.664;9.162;2023-04-25T04:15:54;9.13;;;4.00;;
6947;SDS011;3513;47.664;9.162;2023-04-25T04:18:20;11.07;;;4.57;;
6947;SDS011;3513;47.664;9.162;2023-04-25T04:20:46;11.13;;;5.10;;
6947;SDS011;3513;47.664;9.162;2023-04-25T04:23:12;9.07;;;4.27;;
6947;SDS011;3513;47.664;9.162;2023-04-25T04:25:38;8.50;;;4.60;;
6947;SDS011;3513;47.664;9.162;2023-04-25T04:28:05;14.17;;;4.80;;
6947;SDS011;3513;47.664;9.162;2023-04-25T04:30:33;6.90;;;3.80;;
6947;SDS011;3513;47.664;9.162;2023-04-25T04:33:01;12.33;;;4.70;;
6947;SDS011;3513;47.664;9.162;2023-04-25T04:35:27;7.77;;;4.60;;
6947;SDS011;3513;47.664;9.162;2023-04-25T04:37:53;5.87;;;4.60;;
6947;SDS011;3513;47.664;9.162;2023-04-25T04:40:19;11.97;;;4.40;;
6947;SDS011;3513;47.664;9.162;2023-04-25T04:42:47;7.60;;;4.03;;
6947;SDS011;3513;47.664;9.162;2023-04-25T04:45:13;9.10;;;5.20;;
6947;SDS011;3513;47.664;9.162;2023-04-25T04:47:39;7.50;;;4.43;;
6947;SDS011;3513;47.664;9.162;2023-04-25T04:50:08;13.00;;;4.63;;
6947;SDS011;3513;47.664;9.162;2023-04-25T04:52:35;9.67;;;3.70;;
6947;SDS011;3513;47.664;9.162;2023-04-25T04:55:02;5.70;;;3.47;;
6947;SDS011;3513;47.664;9.162;2023-04-25T04:57:28;9.90;;;3.53;;
6947;SDS011;3513;47.664;9.162;2023-04-25T04:59:54;8.40;;;3.97;;
6947;SDS011;3513;47.664;9.162;2023-04-25T05:02:20;14.53;;;4.57;;
6947;SDS011;3513;47.664;9.162;2023-04-25T05:04:45;10.50;;;4.30;;
6947;SDS011;3513;47.664;9.162;2023-04-25T05:07:11;13.57;;;4.10;;
6947;SDS011;3513;47.664;9.162;2023-04-25T05:09:37;9.73;;;3.90;;
6947;SDS011;3513;47.664;9.162;2023-04-25T05:12:03;10.20;;;4.30;;
6947;SDS011;3513;47.664;9.162;2023-04-25T05:14:28;14.40;;;4.83;;
6947;SDS011;3513;47.664;9.162;2023-04-25T05:16:54;12.90;;;8.53;;
6947;SDS011;3513;47.664;9.162;2023-04-25T05:19:20;7.03;;;4.93;;
6947;SDS011;3513;47.664;9.162;2023-04-25T05:21:46;11.90;;;4.30;;
6947;SDS011;3513;47.664;9.162;2023-04-25T05:24:11;10.80;;;4.93;;
6947;SDS011;3513;47.664;9.162;2023-04-25T05:26:37;13.50;;;5.63;;
6947;SDS011;3513;47.664;9.162;2023-04-25T05:29:03;13.37;;;5.10;;
6947;SDS011;3513;47.664;9.162;2023-04-25T05:31:29;15.07;;;5.47;;
6947;SDS011;3513;47.664;9.162;2023-04-25T05:33:54;13.33;;;4.63;;
6947;SDS011;3513;47.664;9.162;2023-04-25T05:36:20;10.47;;;5.50;;
6947;SDS011;3513;47.664;9.162;2023-04-25T05:38:46;12.80;;;5.17;;
6947;SDS011;3513;47.664;9.162;2023-04-25T05:41:12;12.43;;;4.50;;
6947;SDS011;3513;47.664;9.162;2023-04-25T05:43:37;10.00;;;5.20;;
6947;SDS011;3513;47.664;9.162;2023-04-25T05:46:03;13.73;;;4.90;;
6947;SDS011;3513;47.664;9.162;2023-04-25T05:48:28;14.73;;;6.23;;
6947;SDS011;3513;47.664;9.162;2023-04-25T05:50:55;12.43;;;4.67;;
6947;SDS011;3513;47.664;9.162;2023-04-25T05:53:20;13.57;;;5.13;;
6947;SDS011;3513;47.664;9.162;2023-04-25T05:55:47;18.97;;;5.77;;
6947;SDS011;3513;47.664;9.162;2023-04-25T05:58:12;9.10;;;5.50;;
6947;SDS011;3513;47.664;9.162;2023-04-25T06:00:38;7.07;;;4.57;;
6947;SDS011;3513;47.664;9.162;2023-04-25T06:03:04;10.23;;;4.83;;
6947;SDS011;3513;47.664;9.162;2023-04-25T06:05:29;13.97;;;5.43;;
6947;SDS011;3513;47.664;9.162;2023-04-25T06:07:55;12.37;;;5.20;;
6947;SDS011;3513;47.664;9.162;2023-04-25T06:10:21;13.83;;;4.40;;
6947;SDS011;3513;47.664;9.162;2023-04-25T06:12:47;18.63;;;4.43;;
6947;SDS011;3513;47.664;9.162;2023-04-25T06:15:13;13.83;;;5.83;;
6947;SDS011;3513;47.664;9.162;2023-04-25T06:17:39;15.83;;;4.60;;
6947;SDS011;3513;47.664;9.162;2023-04-25T06:20:05;23.67;;;4.10;;
6947;SDS011;3513;47.664;9.162;2023-04-25T06:22:31;12.20;;;3.93;;
6947;SDS011;3513;47.664;9.162;2023-04-25T06:24:56;10.33;;;4.77;;
6947;SDS011;3513;47.664;9.162;2023-04-25T06:27:24;9.03;;;3.40;;
6947;SDS011;3513;47.664;9.162;2023-04-25T06:29:50;11.67;;;4.23;;
6947;SDS011;3513;47.664;9.162;2023-04-25T06:32:15;16.30;;;4.40;;
6947;SDS011;3513;47.664;9.162;2023-04-25T06:34:43;9.20;;;4.03;;
6947;SDS011;3513;47.664;9.162;2023-04-25T06:37:08;8.37;;;3.40;;
6947;SDS011;3513;47.664;9.162;2023-04-25T06:39:34;6.70;;;3.33;;
6947;SDS011;3513;47.664;9.162;2023-04-25T06:42:00;9.73;;;3.90;;
6947;SDS011;3513;47.664;9.162;2023-04-25T06:44:25;7.87;;;4.43;;
6947;SDS011;3513;47.664;9.162;2023-04-25T06:46:51;6.73;;;3.93;;
6947;SDS011;3513;47.664;9.162;2023-04-25T06:49:17;5.97;;;3.97;;
6947;SDS011;3513;47.664;9.162;2023-04-25T06:51:43;7.53;;;3.40;;
6947;SDS011;3513;47.664;9.162;2023-04-25T06:54:08;6.43;;;4.40;;
6947;SDS011;3513;47.664;9.162;2023-04-25T06:56:34;7.43;;;4.40;;
6947;SDS011;3513;47.664;9.162;2023-04-25T06:59:00;7.50;;;3.77;;
6947;SDS011;3513;47.664;9.162;2023-04-25T07:01:25;14.17;;;5.60;;
6947;SDS011;3513;47.664;9.162;2023-04-25T07:03:51;10.87;;;4.13;;
6947;SDS011;3513;47.664;9.162;2023-04-25T07:06:17;10.53;;;4.67;;
6947;SDS011;3513;47.664;9.162;2023-04-25T07:08:42;13.03;;;4.10;;
6947;SDS011;3513;47.664;9.162;2023-04-25T07:11:08;9.67;;;4.83;;
6947;SDS011;3513;47.664;9.162;2023-04-25T07:13:34;12.83;;;5.20;;
6947;SDS011;3513;47.664;9.162;2023-04-25T07:15:59;20.10;;;4.77;;
6947;SDS011;3513;47.664;9.162;2023-04-25T07:18:25;18.13;;;4.33;;
6947;SDS011;3513;47.664;9.162;2023-04-25T07:20:51;15.93;;;5.10;;
6947;SDS011;3513;47.664;9.162;2023-04-25T07:23:16;22.07;;;5.47;;
6947;SDS011;3513;47.664;9.162;2023-04-25T07:25:42;7.23;;;3.50;;
6947;SDS011;3513;47.664;9.162;2023-04-25T07:28:08;7.07;;;3.57;;
6947;SDS011;3513;47.664;9.162;2023-04-25T07:30:34;11.50;;;3.37;;
6947;SDS011;3513;47.664;9.162;2023-04-25T07:33:00;6.10;;;2.90;;
6947;SDS011;3513;47.664;9.162;2023-04-25T07:35:25;11.93;;;4.20;;
6947;SDS011;3513;47.664;9.162;2023-04-25T07:37:51;6.00;;;3.10;;
6947;SDS011;3513;47.664;9.162;2023-04-25T07:40:17;5.87;;;3.57;;
6947;SDS011;3513;47.664;9.162;2023-04-25T07:42:42;5.40;;;4.23;;
6947;SDS011;3513;47.664;9.162;2023-04-25T07:45:08;4.60;;;3.20;;
6947;SDS011;3513;47.664;9.162;2023-04-25T07:47:34;11.17;;;4.10;;
6947;SDS011;3513;47.664;9.162;2023-04-25T07:50:01;12.50;;;3.77;;
6947;SDS011;3513;47.664;9.162;2023-04-25T07:52:27;5.70;;;4.07;;
6947;SDS011;3513;47.664;9.162;2023-04-25T07:54:53;9.63;;;3.70;;
6947;SDS011;3513;47.664;9.162;2023-04-25T07:57:19;4.80;;;3.63;;
6947;SDS011;3513;47.664;9.162;2023-04-25T07:59:45;13.43;;;4.13;;
6947;SDS011;3513;47.664;9.162;2023-04-25T08:02:11;6.03;;;3.33;;
6947;SDS011;3513;47.664;9.162;2023-04-25T08:04:36;6.30;;;4.77;;
6947;SDS011;3513;47.664;9.162;2023-04-25T08:07:02;8.63;;;4.83;;
6947;SDS011;3513;47.664;9.162;2023-04-25T08:09:46;12.40;;;4.60;;
6947;SDS011;3513;47.664;9.162;2023-04-25T08:12:11;8.43;;;4.90;;
6947;SDS011;3513;47.664;9.162;2023-04-25T08:14:37;7.10;;;4.50;;
6947;SDS011;3513;47.664;9.162;2023-04-25T08:17:04;11.57;;;4.53;;
6947;SDS011;3513;47.664;9.162;2023-04-25T08:19:30;12.00;;;5.07;;
6947;SDS011;3513;47.664;9.162;2023-04-25T08:21:56;16.87;;;4.80;;
6947;SDS011;3513;47.664;9.162;2023-04-25T08:24:22;14.27;;;5.90;;
6947;SDS011;3513;47.664;9.162;2023-04-25T08:26:48;8.63;;;5.87;;
6947;SDS011;3513;47.664;9.162;2023-04-25T08:29:14;10.43;;;5.13;;
6947;SDS011;3513;47.664;9.162;2023-04-25T08:31:40;8.20;;;5.03;;
6947;SDS011;3513;47.664;9.162;2023-04-25T08:34:05;15.03;;;5.50;;
6947;SDS011;3513;47.664;9.162;2023-04-25T08:36:31;7.33;;;5.93;;
6947;SDS011;3513;47.664;9.162;2023-04-25T08:38:57;11.07;;;4.67;;
6947;SDS011;3513;47.664;9.162;2023-04-25T08:41:23;16.87;;;5.40;;
6947;SDS011;3513;47.664;9.162;2023-04-25T08:43:50;10.70;;;5.00;;
6947;SDS011;3513;47.664;9.162;2023-04-25T08:46:18;10.33;;;4.80;;
6947;SDS011;3513;47.664;9.162;2023-04-25T08:48:44;13.50;;;4.97;;
6947;SDS011;3513;47.664;9.162;2023-04-25T08:51:14;8.20;;;4.30;;
6947;SDS011;3513;47.664;9.162;2023-04-25T08:53:43;5.03;;;4.00;;
6947;SDS011;3513;47.664;9.162;2023-04-25T08:56:11;8.37;;;4.23;;
6947;SDS011;3513;47.664;9.162;2023-04-25T08:58:41;16.47;;;5.43;;
6947;SDS011;3513;47.664;9.162;2023-04-25T09:01:08;6.80;;;4.13;;
6947;SDS011;3513;47.664;9.162;2023-04-25T09:03:34;5.93;;;4.70;;
6947;SDS011;3513;47.664;9.162;2023-04-25T09:06:01;11.83;;;4.17;;
6947;SDS011;3513;47.664;9.162;2023-04-25T09:08:27;10.83;;;4.40;;
6947;SDS011;3513;47.664;9.162;2023-04-25T09:10:52;6.77;;;4.23;;
6947;SDS011;3513;47.664;9.162;2023-04-25T09:13:24;4.37;;;3.70;;
6947;SDS011;3513;47.664;9.162;2023-04-25T09:15:52;8.07;;;3.87;;
6947;SDS011;3513;47.664;9.162;2023-04-25T09:18:25;5.63;;;4.10;;
6947;SDS011;3513;47.664;9.162;2023-04-25T09:20:53;7.27;;;4.00;;
6947;SDS011;3513;47.664;9.162;2023-04-25T09:23:19;6.47;;;3.33;;
6947;SDS011;3513;47.664;9.162;2023-04-25T09:25:47;6.57;;;3.60;;
6947;SDS011;3513;47.664;9.162;2023-04-25T09:28:13;10.83;;;4.00;;
6947;SDS011;3513;47.664;9.162;2023-04-25T09:30:39;5.00;;;2.80;;
6947;SDS011;3513;47.664;9.162;2023-04-25T09:33:11;6.77;;;3.10;;
6947;SDS011;3513;47.664;9.162;2023-04-25T09:35:38;5.10;;;2.80;;
6947;SDS011;3513;47.664;9.162;2023-04-25T09:38:09;2.33;;;2.13;;
6947;SDS011;3513;47.664;9.162;2023-04-25T09:40:40;3.90;;;2.20;;
6947;SDS011;3513;47.664;9.162;2023-04-25T09:43:20;4.30;;;2.53;;
6947;SDS011;3513;47.664;9.162;2023-04-25T09:45:47;2.20;;;2.03;;
6947;SDS011;3513;47.664;9.162;2023-04-25T09:48:22;5.10;;;1.87;;
6947;SDS011;3513;47.664;9.162;2023-04-25T09:53:30;2.03;;;1.80;;
6947;SDS011;3513;47.664;9.162;2023-04-25T09:55:57;4.50;;;1.77;;
6947;SDS011;3513;47.664;9.162;2023-04-25T09:58:25;2.73;;;1.80;;
6947;SDS011;3513;47.664;9.162;2023-04-25T10:00:54;2.80;;;1.90;;
6947;SDS011;3513;47.664;9.162;2023-04-25T10:03:24;2.27;;;1.40;;
6947;SDS011;3513;47.664;9.162;2023-04-25T10:05:50;1.70;;;1.60;;
6947;SDS011;3513;47.664;9.162;2023-04-25T10:08:17;4.13;;;1.73;;
6947;SDS011;3513;47.664;9.162;2023-04-25T10:10:43;1.70;;;1.43;;
6947;SDS011;3513;47.664;9.162;2023-04-25T10:13:10;2.17;;;1.20;;
6947;SDS011;3513;47.664;9.162;2023-04-25T10:15:36;0.90;;;0.90;;
6947;SDS011;3513;47.664;9.162;2023-04-25T10:18:02;1.33;;;1.23;;
6947;SDS011;3513;47.664;9.162;2023-04-25T10:20:29;2.40;;;1.20;;
6947;SDS011;3513;47.664;9.162;2023-04-25T10:22:55;3.63;;;1.47;;
6947;SDS011;3513;47.664;9.162;2023-04-25T10:25:37;3.90;;;1.47;;
6947;SDS011;3513;47.664;9.162;2023-04-25T10:28:05;1.97;;;1.20;;
6947;SDS011;3513;47.664;9.162;2023-04-25T10:30:30;1.87;;;1.13;;
6947;SDS011;3513;47.664;9.162;2023-04-25T10:32:58;1.03;;;0.90;;
6947;SDS011;3513;47.664;9.162;2023-04-25T10:35:28;2.53;;;1.20;;
6947;SDS011;3513;47.664;9.162;2023-04-25T10:38:10;1.73;;;1.33;;
6947;SDS011;3513;47.664;9.162;2023-04-25T10:40:38;1.30;;;0.93;;
6947;SDS011;3513;47.664;9.162;2023-04-25T10:45:59;0.70;;;0.63;;
6947;SDS011;3513;47.664;9.162;2023-04-25T10:48:25;3.17;;;0.97;;
6947;SDS011;3513;47.664;9.162;2023-04-25T10:51:11;9.90;;;1.63;;
6947;SDS011;3513;47.664;9.162;2023-04-25T10:53:41;1.47;;;1.03;;
6947;SDS011;3513;47.664;9.162;2023-04-25T10:58:41;1.20;;;1.10;;
6947;SDS011;3513;47.664;9.162;2023-04-25T11:01:08;1.30;;;1.00;;
6947;SDS011;3513;47.664;9.162;2023-04-25T11:03:37;2.70;;;1.20;;
6947;SDS011;3513;47.664;9.162;2023-04-25T11:06:11;1.73;;;1.07;;
6947;SDS011;3513;47.664;9.162;2023-04-25T11:08:48;2.50;;;1.00;;
6947;SDS011;3513;47.664;9.162;2023-04-25T11:11:17;0.70;;;0.70;;
6947;SDS011;3513;47.664;9.162;2023-04-25T11:13:43;6.40;;;1.07;;
6947;SDS011;3513;47.664;9.162;2023-04-25T11:16:09;2.03;;;0.80;;
6947;SDS011;3513;47.664;9.162;2023-04-25T11:18:35;2.90;;;0.80;;
6947;SDS011;3513;47.664;9.162;2023-04-25T11:21:02;1.27;;;0.80;;
6947;SDS011;3513;47.664;9.162;2023-04-25T11:23:28;4.87;;;1.10;;
6947;SDS011;3513;47.664;9.162;2023-04-25T11:25:55;2.20;;;0.80;;
6947;SDS011;3513;47.664;9.162;2023-04-25T11:28:21;2.20;;;1.00;;
6947;SDS011;3513;47.664;9.162;2023-04-25T11:30:48;0.73;;;0.70;;
6947;SDS011;3513;47.664;9.162;2023-04-25T11:33:15;2.03;;;0.70;;
6947;SDS011;3513;47.664;9.162;2023-04-25T11:35:41;3.33;;;0.90;;
6947;SDS011;3513;47.664;9.162;2023-04-25T11:38:06;0.90;;;0.73;;
6947;SDS011;3513;47.664;9.162;2023-04-25T11:40:32;1.73;;;0.70;;
6947;SDS011;3513;47.664;9.162;2023-04-25T11:42:59;1.20;;;0.70;;
6947;SDS011;3513;47.664;9.162;2023-04-25T11:45:25;1.60;;;0.70;;
6947;SDS011;3513;47.664;9.162;2023-04-25T11:47:51;1.00;;;0.90;;
6947;SDS011;3513;47.664;9.162;2023-04-25T11:50:18;1.87;;;1.10;;
6947;SDS011;3513;47.664;9.162;2023-04-25T11:52:44;0.70;;;0.70;;
6947;SDS011;3513;47.664;9.162;2023-04-25T11:55:15;0.80;;;0.80;;
6947;SDS011;3513;47.664;9.162;2023-04-25T11:57:43;0.60;;;0.50;;
6947;SDS011;3513;47.664;9.162;2023-04-25T12:02:42;0.87;;;0.80;;
6947;SDS011;3513;47.664;9.162;2023-04-25T12:05:09;1.20;;;0.70;;
6947;SDS011;3513;47.664;9.162;2023-04-25T12:07:36;1.07;;;0.60;;
6947;SDS011;3513;47.664;9.162;2023-04-25T12:10:07;2.63;;;0.77;;
6947;SDS011;3513;47.664;9.162;2023-04-25T12:12:34;1.30;;;0.90;;
6947;SDS011;3513;47.664;9.162;2023-04-25T12:15:08;1.23;;;0.80;;
6947;SDS011;3513;47.664;9.162;2023-04-25T12:17:35;1.13;;;1.03;;
6947;SDS011;3513;47.664;9.162;2023-04-25T12:20:05;0.90;;;0.60;;
6947;SDS011;3513;47.664;9.162;2023-04-25T12:22:35;0.70;;;0.70;;
6947;SDS011;3513;47.664;9.162;2023-04-25T12:25:01;2.30;;;0.50;;
6947;SDS011;3513;47.664;9.162;2023-04-25T12:27:30;1.27;;;0.80;;
6947;SDS011;3513;47.664;9.162;2023-04-25T12:29:57;2.80;;;0.50;;
6947;SDS011;3513;47.664;9.162;2023-04-25T12:32:22;2.20;;;0.63;;
6947;SDS011;3513;47.664;9.162;2023-04-25T12:34:49;2.10;;;0.50;;
6947;SDS011;3513;47.664;9.162;2023-04-25T12:37:14;0.70;;;0.60;;
6947;SDS011;3513;47.664;9.162;2023-04-25T12:39:40;0.97;;;0.70;;
6947;SDS011;3513;47.664;9.162;2023-04-25T12:42:06;0.90;;;0.70;;
6947;SDS011;3513;47.664;9.162;2023-04-25T12:44:37;1.40;;;0.77;;
6947;SDS011;3513;47.664;9.162;2023-04-25T12:47:03;3.60;;;1.27;;
6947;SDS011;3513;47.664;9.162;2023-04-25T12:49:30;1.67;;;1.07;;
6947;SDS011;3513;47.664;9.162;2023-04-25T12:51:55;1.80;;;0.83;;
6947;SDS011;3513;47.664;9.162;2023-04-25T12:54:21;3.03;;;0.77;;
6947;SDS011;3513;47.664;9.162;2023-04-25T12:56:46;6.10;;;0.90;;
6947;SDS011;3513;47.664;9.162;2023-04-25T12:59:12;0.83;;;0.60;;
6947;SDS011;3513;47.664;9.162;2023-04-25T13:01:38;1.83;;;0.60;;
6947;SDS011;3513;47.664;9.162;2023-04-25T13:04:04;0.83;;;0.83;;
6947;SDS011;3513;47.664;9.162;2023-04-25T13:06:29;1.63;;;0.70;;
6947;SDS011;3513;47.664;9.162;2023-04-25T13:08:55;1.40;;;0.60;;
6947;SDS011;3513;47.664;9.162;2023-04-25T13:11:21;1.77;;;0.93;;
6947;SDS011;3513;47.664;9.162;2023-04-25T13:13:46;1.30;;;0.83;;
6947;SDS011;3513;47.664;9.162;2023-04-25T13:16:12;0.80;;;0.70;;
6947;SDS011;3513;47.664;9.162;2023-04-25T13:18:41;1.20;;;1.10;;
6947;SDS011;3513;47.664;9.162;2023-04-25T13:21:08;2.00;;;1.17;;
6947;SDS011;3513;47.664;9.162;2023-04-25T13:23:35;1.20;;;0.90;;
6947;SDS011;3513;47.664;9.162;2023-04-25T13:26:01;1.17;;;0.70;;
6947;SDS011;3513;47.664;9.162;2023-04-25T13:28:27;1.83;;;0.90;;
6947;SDS011;3513;47.664;9.162;2023-04-25T13:30:53;1.10;;;0.80;;
6947;SDS011;3513;47.664;9.162;2023-04-25T13:33:19;1.37;;;1.03;;
6947;SDS011;3513;47.664;9.162;2023-04-25T13:35:45;0.90;;;0.80;;
6947;SDS011;3513;47.664;9.162;2023-04-25T13:38:18;1.00;;;0.90;;
6947;SDS011;3513;47.664;9.162;2023-04-25T13:40:47;1.07;;;0.80;;
6947;SDS011;3513;47.664;9.162;2023-04-25T13:43:13;2.53;;;0.87;;
6947;SDS011;3513;47.664;9.162;2023-04-25T13:45:39;1.73;;;1.17;;
6947;SDS011;3513;47.664;9.162;2023-04-25T13:48:04;3.40;;;1.47;;
6947;SDS011;3513;47.664;9.162;2023-04-25T13:50:30;1.63;;;1.10;;
6947;SDS011;3513;47.664;9.162;2023-04-25T13:52:56;1.30;;;1.20;;
6947;SDS011;3513;47.664;9.162;2023-04-25T13:55:22;10.63;;;1.23;;
6947;SDS011;3513;47.664;9.162;2023-04-25T13:57:47;1.17;;;0.87;;
6947;SDS011;3513;47.664;9.162;2023-04-25T14:00:13;1.87;;;1.10;;
6947;SDS011;3513;47.664;9.162;2023-04-25T14:02:39;3.10;;;1.30;;
6947;SDS011;3513;47.664;9.162;2023-04-25T14:05:05;2.00;;;1.00;;
6947;SDS011;3513;47.664;9.162;2023-04-25T14:07:32;3.97;;;0.97;;
6947;SDS011;3513;47.664;9.162;2023-04-25T14:09:59;13.93;;;1.77;;
6947;SDS011;3513;47.664;9.162;2023-04-25T14:12:25;1.23;;;1.13;;
6947;SDS011;3513;47.664;9.162;2023-04-25T14:14:51;2.03;;;1.13;;
6947;SDS011;3513;47.664;9.162;2023-04-25T14:17:18;2.40;;;1.33;;
6947;SDS011;3513;47.664;9.162;2023-04-25T14:19:44;4.43;;;1.17;;
6947;SDS011;3513;47.664;9.162;2023-04-25T14:22:12;2.17;;;1.17;;
6947;SDS011;3513;47.664;9.162;2023-04-25T14:24:39;1.60;;;1.20;;
6947;SDS011;3513;47.664;9.162;2023-04-25T14:27:04;1.30;;;1.10;;
6947;SDS011;3513;47.664;9.162;2023-04-25T14:29:30;3.97;;;1.80;;
6947;SDS011;3513;47.664;9.162;2023-04-25T14:31:56;2.60;;;1.73;;
6947;SDS011;3513;47.664;9.162;2023-04-25T14:34:22;1.53;;;1.43;;
6947;SDS011;3513;47.664;9.162;2023-04-25T14:36:48;2.70;;;1.40;;
6947;SDS011;3513;47.664;9.162;2023-04-25T14:39:14;2.10;;;1.30;;
6947;SDS011;3513;47.664;9.162;2023-04-25T14:41:40;2.87;;;1.37;;
6947;SDS011;3513;47.664;9.162;2023-04-25T14:44:05;1.23;;;0.73;;
6947;SDS011;3513;47.664;9.162;2023-04-25T14:46:31;5.00;;;1.10;;
6947;SDS011;3513;47.664;9.162;2023-04-25T14:48:57;0.83;;;0.83;;
6947;SDS011;3513;47.664;9.162;2023-04-25T14:51:22;2.70;;;1.40;;
6947;SDS011;3513;47.664;9.162;2023-04-25T14:53:48;4.90;;;1.00;;
6947;SDS011;3513;47.664;9.162;2023-04-25T14:56:14;1.73;;;1.03;;
6947;SDS011;3513;47.664;9.162;2023-04-25T14:58:39;2.00;;;0.90;;
6947;SDS011;3513;47.664;9.162;2023-04-25T15:01:05;4.70;;;1.43;;
6947;SDS011;3513;47.664;9.162;2023-04-25T15:03:32;3.77;;;1.40;;
6947;SDS011;3513;47.664;9.162;2023-04-25T15:05:57;2.03;;;1.10;;
6947;SDS011;3513;47.664;9.162;2023-04-25T15:08:23;5.40;;;1.50;;
6947;SDS011;3513;47.664;9.162;2023-04-25T15:10:48;2.80;;;1.50;;
6947;SDS011;3513;47.664;9.162;2023-04-25T15:13:15;2.03;;;1.10;;
6947;SDS011;3513;47.664;9.162;2023-04-25T15:15:42;1.53;;;1.13;;
6947;SDS011;3513;47.664;9.162;2023-04-25T15:18:08;2.17;;;1.03;;
6947;SDS011;3513;47.664;9.162;2023-04-25T15:20:33;2.40;;;1.20;;